createdAt,value
2023-03-23T00:00:11.588Z,1000.39
2023-03-23T00:01:11.531Z,1000.34
2023-03-23T00:02:11.535Z,1000.29
2023-03-23T00:03:11.517Z,1000.33
2023-03-23T00:04:11.502Z,1000.33
2023-03-23T00:05:11.534Z,1000.25
2023-03-23T00:06:11.509Z,1000.26
2023-03-23T00:07:11.488Z,1000.24
2023-03-23T00:08:11.463Z,1000.26
2023-03-23T00:09:11.454Z,1000.23
2023-03-23T00:10:11.448Z,1000.15
2023-03-23T00:11:11.434Z,1000.16
2023-03-23T00:12:11.446Z,1000.13
2023-03-23T00:13:11.399Z,1000.06
2023-03-23T00:14:11.390Z,1000.06
2023-03-23T00:15:20.521Z,1000.06
2023-03-23T00:16:11.371Z,1000.05
2023-03-23T00:17:11.364Z,1000.09
2023-03-23T00:18:11.362Z,1000.11
2023-03-23T00:19:11.342Z,1000.15
2023-03-23T00:20:11.323Z,1000.09
2023-03-23T00:21:11.338Z,1000.08
2023-03-23T00:22:11.305Z,1000.11
2023-03-23T00:23:11.320Z,1000.13
2023-03-23T00:24:11.280Z,1000.14
2023-03-23T00:25:11.324Z,1000.08
2023-03-23T00:26:11.266Z,1000.08
2023-03-23T00:27:11.246Z,1000.13
2023-03-23T00:28:11.252Z,1000.09
2023-03-23T00:29:11.230Z,1000.02
2023-03-23T00:30:11.237Z,999.98
2023-03-23T00:31:11.217Z,999.94
2023-03-23T00:32:11.222Z,999.94
2023-03-23T00:33:11.208Z,999.90
2023-03-23T00:34:11.176Z,999.94
2023-03-23T00:35:11.175Z,999.95
2023-03-23T00:36:11.150Z,999.94
2023-03-23T00:37:11.171Z,999.98
2023-03-23T00:38:11.132Z,999.95
2023-03-23T00:39:11.145Z,999.91
2023-03-23T00:40:11.140Z,999.88
2023-03-23T00:41:11.139Z,999.92
2023-03-23T00:42:11.091Z,999.87
2023-03-23T00:43:11.090Z,999.92
2023-03-23T00:44:11.075Z,999.85
2023-03-23T00:45:11.076Z,999.83
2023-03-23T00:46:11.075Z,999.81
2023-03-23T00:47:11.041Z,999.76
2023-03-23T00:48:11.030Z,999.81
2023-03-23T00:49:11.018Z,999.79
2023-03-23T00:50:11.021Z,999.77
2023-03-23T00:51:11.007Z,999.75
2023-03-23T00:52:10.983Z,999.79
2023-03-23T00:53:10.986Z,999.74
2023-03-23T00:54:11.019Z,999.76
2023-03-23T00:55:10.993Z,999.72
2023-03-23T00:56:10.983Z,999.72
2023-03-23T00:57:10.927Z,999.70
2023-03-23T00:58:10.921Z,999.72
2023-03-23T00:59:10.898Z,999.72
2023-03-23T01:00:10.891Z,999.66
2023-03-23T01:01:11.017Z,999.62
2023-03-23T01:02:10.877Z,999.65
2023-03-23T01:03:10.875Z,999.65
2023-03-23T01:04:10.850Z,999.59
2023-03-23T01:05:10.835Z,999.63
2023-03-23T01:06:11.028Z,999.64
2023-03-23T01:07:10.812Z,999.63
2023-03-23T01:08:10.812Z,999.59
2023-03-23T01:09:10.809Z,999.56
2023-03-23T01:10:10.780Z,999.60
2023-03-23T01:11:10.995Z,999.56
2023-03-23T01:12:10.756Z,999.60
2023-03-23T01:13:10.747Z,999.56
2023-03-23T01:14:10.750Z,999.54
2023-03-23T01:15:10.737Z,999.56
2023-03-23T01:16:10.711Z,999.58
2023-03-23T01:17:10.721Z,999.51
2023-03-23T01:18:10.693Z,999.49
2023-03-23T01:19:10.680Z,999.52
2023-03-23T01:20:10.680Z,999.51
2023-03-23T01:21:10.655Z,999.48
2023-03-23T01:22:10.672Z,999.53
2023-03-23T01:23:10.639Z,999.50
2023-03-23T01:24:10.625Z,999.51
2023-03-23T01:25:10.633Z,999.49
2023-03-23T01:26:10.603Z,999.48
2023-03-23T01:27:10.631Z,999.42
2023-03-23T01:28:10.582Z,999.41
2023-03-23T01:29:10.587Z,999.45
2023-03-23T01:30:10.561Z,999.44
2023-03-23T01:31:14.619Z,999.43
2023-03-23T01:32:10.549Z,999.39
2023-03-23T01:33:10.522Z,999.42
2023-03-23T01:34:10.519Z,999.34
2023-03-23T01:35:10.528Z,999.32
2023-03-23T01:36:10.494Z,999.30
2023-03-23T01:37:10.502Z,999.33
2023-03-23T01:38:10.478Z,999.32
2023-03-23T01:39:10.513Z,999.32
2023-03-23T01:40:10.451Z,999.34
2023-03-23T01:41:10.463Z,999.43
2023-03-23T01:42:10.441Z,999.41
2023-03-23T01:43:10.456Z,999.43
2023-03-23T01:44:10.403Z,999.42
2023-03-23T01:45:10.410Z,999.43
2023-03-23T01:46:10.393Z,999.42
2023-03-23T01:47:10.393Z,999.39
2023-03-23T01:48:10.381Z,999.37
2023-03-23T01:49:10.348Z,999.33
2023-03-23T01:50:10.362Z,999.33
2023-03-23T01:51:10.327Z,999.29
2023-03-23T01:52:10.322Z,999.27
2023-03-23T01:53:10.307Z,999.26
2023-03-23T01:54:10.304Z,999.27
2023-03-23T01:55:10.298Z,999.20
2023-03-23T01:56:10.295Z,999.17
2023-03-23T01:57:10.288Z,999.17
2023-03-23T01:58:10.258Z,999.13
2023-03-23T01:59:10.240Z,999.11
2023-03-23T02:00:10.247Z,999.09
2023-03-23T02:01:10.247Z,999.14
2023-03-23T02:02:10.217Z,999.15
2023-03-23T02:03:10.207Z,999.13
2023-03-23T02:04:10.197Z,999.17
2023-03-23T02:05:10.180Z,999.13
2023-03-23T02:06:10.185Z,999.16
2023-03-23T02:07:10.165Z,999.14
2023-03-23T02:08:10.152Z,999.12
2023-03-23T02:09:10.621Z,999.17
2023-03-23T02:10:10.131Z,999.11
2023-03-23T02:11:10.119Z,999.10
2023-03-23T02:12:11.127Z,999.12
2023-03-23T02:13:12.348Z,999.08
2023-03-23T02:14:10.079Z,999.07
2023-03-23T02:15:10.062Z,999.15
2023-03-23T02:16:10.052Z,999.10
2023-03-23T02:17:10.056Z,999.16
2023-03-23T02:18:10.033Z,999.14
2023-03-23T02:19:10.024Z,999.12
2023-03-23T02:20:10.010Z,999.15
2023-03-23T02:21:10.001Z,999.08
2023-03-23T02:22:10.004Z,999.04
2023-03-23T02:23:09.983Z,999.02
2023-03-23T02:24:09.965Z,998.99
2023-03-23T02:25:09.949Z,998.98
2023-03-23T02:26:09.950Z,998.98
2023-03-23T02:27:09.957Z,999.02
2023-03-23T02:28:09.922Z,998.99
2023-03-23T02:29:09.927Z,999.02
2023-03-23T02:30:09.896Z,998.99
2023-03-23T02:31:09.897Z,998.97
2023-03-23T02:32:09.884Z,998.98
2023-03-23T02:33:09.880Z,999.01
2023-03-23T02:34:09.849Z,998.98
2023-03-23T02:35:09.836Z,998.94
2023-03-23T02:36:09.825Z,998.95
2023-03-23T02:37:09.841Z,998.98
2023-03-23T02:38:09.811Z,999.04
2023-03-23T02:39:09.828Z,999.02
2023-03-23T02:40:09.786Z,999.05
2023-03-23T02:41:09.780Z,999.03
2023-03-23T02:42:14.201Z,999.07
2023-03-23T02:43:10.760Z,999.12
2023-03-23T02:44:09.744Z,999.21
2023-03-23T02:45:09.767Z,999.19
2023-03-23T02:46:09.725Z,999.15
2023-03-23T02:47:09.717Z,999.19
2023-03-23T02:48:09.718Z,999.15
2023-03-23T02:49:09.680Z,999.10
2023-03-23T02:50:09.697Z,999.05
2023-03-23T02:51:09.659Z,999.06
2023-03-23T02:52:09.650Z,999.05
2023-03-23T02:53:09.635Z,999.02
2023-03-23T02:54:09.626Z,998.97
2023-03-23T02:55:09.629Z,999.03
2023-03-23T02:56:09.620Z,998.99
2023-03-23T02:57:09.594Z,998.99
2023-03-23T02:58:09.600Z,998.97
2023-03-23T02:59:09.570Z,998.95
2023-03-23T03:00:09.572Z,998.93
2023-03-23T03:01:09.621Z,998.97
2023-03-23T03:02:09.559Z,998.96
2023-03-23T03:03:09.536Z,998.91
2023-03-23T03:04:09.514Z,998.88
2023-03-23T03:05:09.512Z,998.83
2023-03-23T03:06:09.515Z,998.85
2023-03-23T03:07:09.484Z,998.85
2023-03-23T03:08:09.476Z,998.88
2023-03-23T03:09:09.474Z,998.88
2023-03-23T03:10:09.454Z,998.86
2023-03-23T03:11:10.468Z,998.91
2023-03-23T03:12:09.429Z,998.93
2023-03-23T03:13:09.416Z,998.84
2023-03-23T03:14:09.402Z,998.86
2023-03-23T03:15:09.396Z,998.85
2023-03-23T03:16:09.397Z,998.85
2023-03-23T03:17:09.400Z,998.84
2023-03-23T03:18:09.364Z,998.87
2023-03-23T03:19:09.360Z,998.88
2023-03-23T03:20:09.347Z,998.90
2023-03-23T03:21:09.353Z,998.82
2023-03-23T03:22:09.324Z,998.88
2023-03-23T03:23:09.302Z,998.89
2023-03-23T03:24:09.311Z,998.90
2023-03-23T03:25:17.781Z,998.83
2023-03-23T03:26:10.288Z,998.84
2023-03-23T03:27:09.266Z,998.83
2023-03-23T03:28:09.250Z,998.83
2023-03-23T03:29:09.269Z,998.82
2023-03-23T03:30:09.232Z,998.87
2023-03-23T03:31:09.226Z,998.88
2023-03-23T03:32:09.212Z,998.80
2023-03-23T03:33:09.223Z,998.82
2023-03-23T03:34:09.200Z,998.86
2023-03-23T03:35:09.197Z,998.86
2023-03-23T03:36:09.222Z,998.90
2023-03-23T03:37:09.160Z,998.90
2023-03-23T03:38:09.149Z,998.90
2023-03-23T03:39:09.134Z,998.90
2023-03-23T03:40:09.142Z,998.87
2023-03-23T03:41:09.109Z,998.89
2023-03-23T03:42:09.097Z,998.86
2023-03-23T03:43:09.089Z,998.87
2023-03-23T03:44:09.085Z,998.84
2023-03-23T03:45:09.094Z,998.82
2023-03-23T03:46:09.055Z,998.86
2023-03-23T03:47:09.048Z,998.80
2023-03-23T03:48:09.032Z,998.82
2023-03-23T03:49:09.049Z,998.74
2023-03-23T03:50:09.016Z,998.78
2023-03-23T03:51:09.027Z,998.76
2023-03-23T03:52:08.991Z,998.71
2023-03-23T03:53:08.981Z,998.69
2023-03-23T03:54:08.967Z,998.76
2023-03-23T03:55:08.961Z,998.77
2023-03-23T03:56:08.966Z,998.78
2023-03-23T03:57:08.940Z,998.77
2023-03-23T03:58:08.931Z,998.77
2023-03-23T03:59:21.832Z,998.75
2023-03-23T04:00:09.913Z,998.75
2023-03-23T04:01:08.888Z,998.74
2023-03-23T04:02:08.897Z,998.75
2023-03-23T04:03:08.864Z,998.79
2023-03-23T04:04:08.853Z,998.79
2023-03-23T04:05:08.875Z,998.77
2023-03-23T04:06:08.846Z,998.81
2023-03-23T04:07:08.841Z,998.76
2023-03-23T04:08:09.298Z,998.77
2023-03-23T04:09:09.077Z,998.77
2023-03-23T04:10:08.798Z,998.70
2023-03-23T04:11:08.774Z,998.71
2023-03-23T04:12:08.766Z,998.70
2023-03-23T04:13:08.786Z,998.72
2023-03-23T04:14:08.774Z,998.69
2023-03-23T04:15:08.755Z,998.66
2023-03-23T04:16:11.268Z,998.63
2023-03-23T04:17:08.743Z,998.58
2023-03-23T04:18:08.716Z,998.56
2023-03-23T04:19:09.862Z,998.59
2023-03-23T04:20:08.678Z,998.62
2023-03-23T04:21:08.694Z,998.72
2023-03-23T04:22:08.666Z,998.73
2023-03-23T04:23:08.645Z,998.74
2023-03-23T04:24:08.661Z,998.70
2023-03-23T04:25:09.632Z,998.67
2023-03-23T04:26:08.622Z,998.68
2023-03-23T04:27:08.607Z,998.62
2023-03-23T04:28:08.604Z,998.66
2023-03-23T04:29:08.581Z,998.60
2023-03-23T04:30:08.589Z,998.62
2023-03-23T04:31:08.565Z,998.55
2023-03-23T04:32:08.565Z,998.54
2023-03-23T04:33:08.545Z,998.56
2023-03-23T04:34:08.543Z,998.59
2023-03-23T04:35:15.847Z,998.61
2023-03-23T04:36:08.550Z,998.62
2023-03-23T04:37:08.651Z,998.58
2023-03-23T04:38:08.490Z,998.59
2023-03-23T04:39:08.484Z,998.57
2023-03-23T04:40:08.471Z,998.60
2023-03-23T04:41:08.453Z,998.61
2023-03-23T04:42:08.437Z,998.59
2023-03-23T04:43:08.464Z,998.62
2023-03-23T04:44:08.431Z,998.62
2023-03-23T04:45:08.456Z,998.69
2023-03-23T04:46:08.417Z,998.77
2023-03-23T04:47:08.394Z,998.82
2023-03-23T04:48:08.378Z,998.89
2023-03-23T04:49:08.360Z,998.88
2023-03-23T04:50:08.360Z,998.86
2023-03-23T04:51:08.354Z,998.89
2023-03-23T04:52:08.332Z,998.87
2023-03-23T04:53:08.341Z,998.84
2023-03-23T04:54:08.323Z,998.86
2023-03-23T04:55:08.306Z,998.84
2023-03-23T04:56:08.304Z,998.88
2023-03-23T04:57:08.282Z,998.95
2023-03-23T04:58:08.265Z,998.91
2023-03-23T04:59:08.260Z,998.95
2023-03-23T05:00:08.243Z,998.97
2023-03-23T05:01:09.028Z,998.96
2023-03-23T05:02:14.764Z,998.96
2023-03-23T05:03:09.225Z,998.98
2023-03-23T05:04:08.203Z,998.96
2023-03-23T05:05:08.192Z,998.97
2023-03-23T05:06:08.209Z,998.98
2023-03-23T05:07:08.163Z,998.93
2023-03-23T05:08:08.155Z,998.93
2023-03-23T05:09:08.154Z,998.88
2023-03-23T05:10:08.140Z,998.85
2023-03-23T05:11:08.141Z,998.89
2023-03-23T05:12:08.130Z,998.86
2023-03-23T05:13:08.099Z,998.89
2023-03-23T05:14:08.095Z,998.84
2023-03-23T05:15:08.076Z,998.86
2023-03-23T05:16:08.112Z,998.86
2023-03-23T05:17:08.071Z,998.91
2023-03-23T05:18:08.057Z,998.90
2023-03-23T05:19:08.057Z,998.89
2023-03-23T05:20:08.029Z,998.87
2023-03-23T05:21:08.016Z,998.87
2023-03-23T05:22:07.998Z,998.86
2023-03-23T05:23:08.013Z,998.86
2023-03-23T05:24:08.010Z,998.83
2023-03-23T05:25:07.988Z,998.87
2023-03-23T05:26:07.955Z,998.94
2023-03-23T05:27:07.954Z,998.93
2023-03-23T05:28:07.960Z,998.91
2023-03-23T05:29:07.920Z,998.96
2023-03-23T05:30:07.912Z,998.92
2023-03-23T05:31:07.905Z,998.92
2023-03-23T05:32:07.895Z,998.94
2023-03-23T05:33:07.877Z,998.96
2023-03-23T05:34:07.887Z,998.98
2023-03-23T05:35:07.857Z,999.00
2023-03-23T05:36:07.874Z,999.00
2023-03-23T05:37:11.067Z,998.98
2023-03-23T05:38:07.832Z,999.03
2023-03-23T05:39:07.813Z,999.02
2023-03-23T05:40:07.829Z,999.04
2023-03-23T05:41:07.807Z,999.05
2023-03-23T05:42:07.775Z,999.06
2023-03-23T05:43:07.768Z,999.04
2023-03-23T05:44:07.760Z,999.06
2023-03-23T05:45:07.746Z,999.09
2023-03-23T05:46:07.755Z,999.10
2023-03-23T05:47:07.715Z,999.14
2023-03-23T05:48:07.713Z,999.13
2023-03-23T05:49:07.701Z,999.11
2023-03-23T05:50:07.690Z,999.08
2023-03-23T05:51:07.690Z,999.06
2023-03-23T05:52:07.670Z,999.08
2023-03-23T05:53:07.657Z,999.05
2023-03-23T05:54:07.644Z,999.07
2023-03-23T05:55:07.641Z,999.09
2023-03-23T05:56:07.648Z,999.10
2023-03-23T05:57:07.644Z,999.06
2023-03-23T05:58:07.605Z,999.10
2023-03-23T05:59:07.586Z,999.10
2023-03-23T06:00:07.573Z,999.15
2023-03-23T06:01:07.583Z,999.14
2023-03-23T06:02:07.553Z,999.16
2023-03-23T06:03:07.574Z,999.19
2023-03-23T06:04:07.539Z,999.25
2023-03-23T06:05:07.520Z,999.22
2023-03-23T06:06:07.520Z,999.25
2023-03-23T06:07:07.525Z,999.27
2023-03-23T06:08:07.495Z,999.29
2023-03-23T06:09:08.270Z,999.25
2023-03-23T06:10:07.468Z,999.27
2023-03-23T06:11:07.479Z,999.27
2023-03-23T06:12:07.518Z,999.23
2023-03-23T06:13:07.457Z,999.22
2023-03-23T06:14:07.420Z,999.25
2023-03-23T06:15:07.421Z,999.25
2023-03-23T06:16:07.400Z,999.20
2023-03-23T06:17:07.409Z,999.25
2023-03-23T06:18:07.387Z,999.29
2023-03-23T06:19:07.382Z,999.31
2023-03-23T06:20:07.361Z,999.22
2023-03-23T06:21:07.482Z,999.35
2023-03-23T06:22:08.351Z,999.27
2023-03-23T06:23:07.347Z,999.20
2023-03-23T06:24:07.324Z,999.30
2023-03-23T06:25:07.298Z,999.25
2023-03-23T06:26:07.298Z,999.30
2023-03-23T06:27:07.302Z,999.23
2023-03-23T06:28:07.269Z,999.29
2023-03-23T06:29:07.291Z,999.33
2023-03-23T06:30:07.252Z,999.25
2023-03-23T06:31:07.237Z,999.34
2023-03-23T06:32:07.229Z,999.28
2023-03-23T06:33:07.245Z,999.30
2023-03-23T06:34:07.199Z,999.26
2023-03-23T06:35:07.250Z,999.33
2023-03-23T06:36:07.209Z,999.32
2023-03-23T06:37:07.189Z,999.31
2023-03-23T06:38:07.154Z,999.36
2023-03-23T06:39:07.146Z,999.41
2023-03-23T06:40:07.142Z,999.37
2023-03-23T06:41:07.159Z,999.38
2023-03-23T06:42:07.113Z,999.45
2023-03-23T06:43:07.120Z,999.44
2023-03-23T06:44:07.113Z,999.39
2023-03-23T06:45:07.106Z,999.36
2023-03-23T06:46:07.076Z,999.35
2023-03-23T06:47:07.071Z,999.41
2023-03-23T06:48:07.111Z,999.40
2023-03-23T06:49:07.049Z,999.41
2023-03-23T06:50:07.065Z,999.39
2023-03-23T06:51:07.020Z,999.44
2023-03-23T06:52:07.053Z,999.43
2023-03-23T06:53:07.021Z,999.49
2023-03-23T06:54:07.037Z,999.42
2023-03-23T06:55:06.980Z,999.42
2023-03-23T06:56:06.984Z,999.41
2023-03-23T06:57:06.956Z,999.41
2023-03-23T06:58:06.944Z,999.46
2023-03-23T06:59:06.940Z,999.44
2023-03-23T07:00:08.841Z,999.47
2023-03-23T07:01:06.929Z,999.51
2023-03-23T07:02:06.897Z,999.54
2023-03-23T07:03:06.903Z,999.54
2023-03-23T07:04:06.902Z,999.54
2023-03-23T07:05:06.865Z,999.54
2023-03-23T07:06:07.107Z,999.51
2023-03-23T07:07:06.851Z,999.49
2023-03-23T07:08:06.830Z,999.47
2023-03-23T07:09:06.832Z,999.44
2023-03-23T07:10:06.817Z,999.46
2023-03-23T07:11:06.819Z,999.45
2023-03-23T07:12:06.800Z,999.43
2023-03-23T07:13:06.783Z,999.47
2023-03-23T07:14:06.782Z,999.51
2023-03-23T07:15:06.750Z,999.52
2023-03-23T07:16:06.772Z,999.47
2023-03-23T07:17:06.774Z,999.40
2023-03-23T07:18:06.724Z,999.35
2023-03-23T07:19:06.712Z,999.34
2023-03-23T07:20:06.711Z,999.35
2023-03-23T07:21:06.683Z,999.31
2023-03-23T07:22:06.687Z,999.28
2023-03-23T07:23:06.665Z,999.22
2023-03-23T07:24:06.645Z,999.15
2023-03-23T07:25:06.650Z,999.20
2023-03-23T07:26:06.625Z,999.33
2023-03-23T07:27:06.638Z,999.37
2023-03-23T07:28:06.882Z,999.36
2023-03-23T07:29:06.625Z,999.37
2023-03-23T07:30:06.597Z,999.44
2023-03-23T07:31:06.578Z,999.45
2023-03-23T07:32:06.586Z,999.41
2023-03-23T07:33:06.581Z,999.38
2023-03-23T07:34:06.574Z,999.31
2023-03-23T07:35:07.365Z,999.29
2023-03-23T07:36:06.556Z,999.32
2023-03-23T07:37:06.512Z,999.30
2023-03-23T07:38:06.495Z,999.34
2023-03-23T07:39:06.487Z,999.38
2023-03-23T07:40:06.534Z,999.30
2023-03-23T07:41:06.462Z,999.29
2023-03-23T07:42:06.448Z,999.39
2023-03-23T07:43:06.448Z,999.37
2023-03-23T07:44:06.434Z,999.29
2023-03-23T07:45:06.455Z,999.28
2023-03-23T07:46:06.480Z,999.23
2023-03-23T07:47:06.416Z,999.21
2023-03-23T07:48:12.761Z,999.22
2023-03-23T07:49:07.422Z,999.06
2023-03-23T07:50:06.395Z,999.08
2023-03-23T07:51:06.373Z,999.04
2023-03-23T07:52:06.345Z,999.02
2023-03-23T07:53:06.335Z,999.06
2023-03-23T07:54:06.736Z,999.01
2023-03-23T07:55:06.328Z,998.96
2023-03-23T07:56:06.311Z,998.92
2023-03-23T07:57:06.286Z,998.76
2023-03-23T07:58:06.271Z,998.74
2023-03-23T07:59:06.322Z,998.78
2023-03-23T08:00:06.283Z,998.83
2023-03-23T08:01:06.266Z,999.00
2023-03-23T08:02:06.238Z,998.94
2023-03-23T08:03:06.218Z,998.96
2023-03-23T08:04:06.220Z,999.00
2023-03-23T08:05:06.253Z,999.12
2023-03-23T08:06:06.191Z,999.11
2023-03-23T08:07:06.187Z,999.12
2023-03-23T08:08:06.189Z,999.24
2023-03-23T08:09:06.163Z,999.33
2023-03-23T08:10:06.144Z,999.25
2023-03-23T08:11:06.146Z,999.39
2023-03-23T08:12:06.144Z,999.32
2023-03-23T08:13:06.108Z,999.34
2023-03-23T08:14:06.108Z,999.35
2023-03-23T08:15:06.089Z,999.34
2023-03-23T08:16:06.076Z,999.42
2023-03-23T08:17:06.088Z,999.45
2023-03-23T08:18:06.068Z,999.45
2023-03-23T08:19:08.793Z,999.43
2023-03-23T08:20:06.036Z,999.49
2023-03-23T08:21:06.044Z,999.43
2023-03-23T08:22:06.044Z,999.38
2023-03-23T08:23:05.999Z,999.43
2023-03-23T08:24:05.995Z,999.48
2023-03-23T08:25:05.980Z,999.41
2023-03-23T08:26:05.973Z,999.42
2023-03-23T08:27:05.950Z,999.42
2023-03-23T08:28:05.958Z,999.44
2023-03-23T08:29:05.955Z,999.45
2023-03-23T08:30:05.916Z,999.43
2023-03-23T08:31:05.915Z,999.44
2023-03-23T08:32:05.898Z,999.43
2023-03-23T08:33:05.882Z,999.47
2023-03-23T08:34:05.884Z,999.44
2023-03-23T08:35:05.886Z,999.47
2023-03-23T08:36:05.983Z,999.49
2023-03-23T08:37:05.864Z,999.46
2023-03-23T08:38:05.838Z,999.39
2023-03-23T08:39:05.818Z,999.36
2023-03-23T08:40:05.875Z,999.30
2023-03-23T08:41:05.796Z,999.29
2023-03-23T08:42:05.787Z,999.31
2023-03-23T08:43:05.774Z,999.20
2023-03-23T08:44:05.769Z,999.21
2023-03-23T08:45:05.755Z,999.15
2023-03-23T08:46:05.760Z,999.25
2023-03-23T08:47:05.726Z,999.23
2023-03-23T08:48:05.741Z,999.26
2023-03-23T08:49:05.716Z,999.38
2023-03-23T08:50:05.719Z,999.52
2023-03-23T08:51:05.691Z,999.47
2023-03-23T08:52:05.693Z,999.49
2023-03-23T08:53:05.705Z,999.52
2023-03-23T08:54:05.664Z,999.51
2023-03-23T08:55:05.643Z,999.52
2023-03-23T08:56:05.635Z,999.51
2023-03-23T08:57:05.642Z,999.50
2023-03-23T08:58:05.609Z,999.51
2023-03-23T08:59:05.604Z,999.50
2023-03-23T09:00:05.589Z,999.50
2023-03-23T09:01:05.585Z,999.48
2023-03-23T09:02:05.563Z,999.42
2023-03-23T09:03:05.548Z,999.45
2023-03-23T09:04:05.546Z,999.46
2023-03-23T09:05:05.538Z,999.52
2023-03-23T09:06:05.547Z,999.49
2023-03-23T09:07:05.557Z,999.63
2023-03-23T09:08:05.501Z,999.58
2023-03-23T09:09:05.539Z,999.56
2023-03-23T09:10:05.498Z,999.60
2023-03-23T09:11:05.472Z,999.59
2023-03-23T09:12:05.473Z,999.65
2023-03-23T09:13:05.454Z,999.64
2023-03-23T09:14:05.443Z,999.69
2023-03-23T09:15:05.430Z,999.89
2023-03-23T09:16:05.417Z,999.63
2023-03-23T09:17:05.430Z,999.64
2023-03-23T09:18:05.387Z,999.70
2023-03-23T09:19:05.373Z,999.63
2023-03-23T09:20:05.404Z,999.55
2023-03-23T09:21:05.351Z,999.51
2023-03-23T09:22:06.368Z,999.49
2023-03-23T09:23:05.333Z,999.46
2023-03-23T09:24:05.328Z,999.44
2023-03-23T09:25:05.890Z,999.44
2023-03-23T09:26:05.302Z,999.41
2023-03-23T09:27:05.301Z,999.51
2023-03-23T09:28:05.283Z,999.60
2023-03-23T09:29:05.278Z,999.53
2023-03-23T09:30:05.266Z,999.39
2023-03-23T09:31:05.270Z,999.41
2023-03-23T09:32:05.237Z,999.40
2023-03-23T09:33:05.239Z,999.53
2023-03-23T09:34:05.217Z,999.48
2023-03-23T09:35:05.204Z,999.58
2023-03-23T09:36:05.248Z,999.52
2023-03-23T09:37:05.185Z,999.35
2023-03-23T09:38:05.178Z,999.47
2023-03-23T09:39:05.162Z,999.46
2023-03-23T09:40:06.770Z,999.59
2023-03-23T09:41:05.163Z,999.52
2023-03-23T09:42:05.148Z,999.57
2023-03-23T09:43:05.122Z,999.54
2023-03-23T09:44:05.109Z,999.64
2023-03-23T09:45:05.125Z,999.58
2023-03-23T09:46:05.092Z,999.67
2023-03-23T09:47:05.091Z,999.57
2023-03-23T09:48:06.521Z,999.57
2023-03-23T09:49:05.058Z,999.53
2023-03-23T09:50:05.044Z,999.49
2023-03-23T09:51:05.031Z,999.52
2023-03-23T09:52:05.012Z,999.52
2023-03-23T09:53:05.007Z,999.60
2023-03-23T09:54:04.994Z,999.57
2023-03-23T09:55:05.012Z,999.62
2023-03-23T09:56:04.973Z,999.56
2023-03-23T09:57:04.996Z,999.62
2023-03-23T09:58:04.949Z,999.70
2023-03-23T09:59:04.937Z,999.65
2023-03-23T10:00:04.934Z,999.60
2023-03-23T10:01:04.985Z,999.74
2023-03-23T10:02:04.911Z,999.65
2023-03-23T10:03:04.911Z,999.49
2023-03-23T10:04:04.885Z,999.58
2023-03-23T10:05:04.880Z,999.65
2023-03-23T10:06:04.879Z,999.58
2023-03-23T10:07:04.855Z,999.66
2023-03-23T10:08:04.883Z,999.64
2023-03-23T10:09:04.831Z,999.85
2023-03-23T10:10:04.830Z,999.94
2023-03-23T10:11:04.826Z,999.66
2023-03-23T10:12:04.800Z,999.78
2023-03-23T10:13:04.799Z,999.71
2023-03-23T10:14:04.793Z,999.60
2023-03-23T10:15:04.765Z,999.56
2023-03-23T10:16:04.757Z,999.62
2023-03-23T10:17:04.782Z,999.57
2023-03-23T10:18:04.774Z,999.56
2023-03-23T10:19:04.719Z,999.52
2023-03-23T10:20:04.716Z,999.57
2023-03-23T10:21:04.702Z,999.51
2023-03-23T10:22:04.712Z,999.46
2023-03-23T10:23:04.682Z,999.52
2023-03-23T10:24:04.683Z,999.53
2023-03-23T10:25:04.647Z,999.50
2023-03-23T10:26:04.662Z,999.53
2023-03-23T10:27:04.638Z,999.32
2023-03-23T10:28:04.659Z,999.48
2023-03-23T10:29:04.637Z,999.44
2023-03-23T10:30:04.608Z,999.49
2023-03-23T10:31:04.594Z,999.44
2023-03-23T10:32:04.584Z,999.48
2023-03-23T10:33:04.570Z,999.41
2023-03-23T10:34:04.583Z,999.39
2023-03-23T10:35:04.545Z,999.39
2023-03-23T10:36:04.586Z,999.37
2023-03-23T10:37:04.575Z,999.31
2023-03-23T10:38:04.520Z,999.33
2023-03-23T10:39:04.506Z,999.31
2023-03-23T10:40:04.495Z,999.39
2023-03-23T10:41:04.481Z,999.36
2023-03-23T10:42:04.473Z,999.51
2023-03-23T10:43:04.480Z,999.41
2023-03-23T10:44:04.466Z,999.50
2023-03-23T10:45:04.458Z,999.44
2023-03-23T10:46:04.553Z,999.51
2023-03-23T10:47:04.466Z,999.34
2023-03-23T10:48:04.433Z,999.42
2023-03-23T10:49:04.414Z,999.37
2023-03-23T10:50:04.389Z,999.48
2023-03-23T10:51:04.380Z,999.54
2023-03-23T10:52:04.392Z,999.45
2023-03-23T10:53:06.496Z,999.38
2023-03-23T10:54:04.390Z,999.32
2023-03-23T10:55:04.338Z,999.41
2023-03-23T10:56:04.326Z,999.42
2023-03-23T10:57:04.325Z,999.37
2023-03-23T10:58:04.373Z,999.37
2023-03-23T10:59:04.339Z,999.31
2023-03-23T11:00:04.394Z,999.44
2023-03-23T11:01:04.289Z,999.37
2023-03-23T11:02:04.250Z,999.39
2023-03-23T11:03:05.815Z,999.55
2023-03-23T11:04:04.248Z,999.47
2023-03-23T11:05:09.383Z,999.32
2023-03-23T11:06:05.207Z,999.54
2023-03-23T11:07:04.207Z,999.42
2023-03-23T11:08:04.187Z,999.37
2023-03-23T11:09:04.195Z,999.40
2023-03-23T11:10:04.162Z,999.36
2023-03-23T11:11:04.179Z,999.42
2023-03-23T11:12:04.148Z,999.49
2023-03-23T11:13:04.140Z,999.42
2023-03-23T11:14:04.124Z,999.69
2023-03-23T11:15:04.115Z,999.55
2023-03-23T11:16:04.117Z,999.49
2023-03-23T11:17:13.927Z,999.53
2023-03-23T11:18:05.096Z,999.49
2023-03-23T11:19:04.076Z,999.54
2023-03-23T11:20:04.077Z,999.53
2023-03-23T11:21:04.061Z,999.52
2023-03-23T11:22:04.043Z,999.50
2023-03-23T11:23:04.034Z,999.45
2023-03-23T11:24:09.975Z,999.47
2023-03-23T11:25:05.063Z,999.57
2023-03-23T11:26:04.016Z,999.59
2023-03-23T11:27:04.004Z,999.60
2023-03-23T11:28:03.985Z,999.61
2023-03-23T11:29:03.976Z,999.64
2023-03-23T11:30:03.960Z,999.61
2023-03-23T11:31:03.973Z,999.55
2023-03-23T11:32:03.937Z,999.55
2023-03-23T11:33:03.943Z,999.57
2023-03-23T11:34:06.313Z,999.63
2023-03-23T11:35:15.642Z,999.60
2023-03-23T11:36:04.918Z,999.64
2023-03-23T11:37:03.881Z,999.62
2023-03-23T11:38:03.862Z,999.58
2023-03-23T11:39:03.853Z,999.66
2023-03-23T11:40:03.868Z,999.71
2023-03-23T11:41:03.868Z,999.65
2023-03-23T11:42:09.286Z,999.59
2023-03-23T11:43:04.806Z,999.71
2023-03-23T11:44:03.802Z,999.65
2023-03-23T11:45:03.801Z,999.68
2023-03-23T11:46:03.792Z,999.66
2023-03-23T11:47:03.761Z,999.73
2023-03-23T11:48:03.756Z,999.73
2023-03-23T11:49:10.235Z,999.75
2023-03-23T11:50:04.747Z,999.64
2023-03-23T11:51:03.729Z,999.75
2023-03-23T11:52:03.736Z,999.60
2023-03-23T11:53:03.708Z,999.65
2023-03-23T11:54:03.715Z,999.77
2023-03-23T11:55:03.690Z,999.72
2023-03-23T11:56:03.710Z,999.68
2023-03-23T11:57:03.657Z,999.70
2023-03-23T11:58:03.669Z,999.73
2023-03-23T11:59:03.657Z,999.75
2023-03-23T12:00:03.626Z,999.73
2023-03-23T12:01:03.607Z,999.74
2023-03-23T12:02:15.020Z,999.77
2023-03-23T12:03:04.617Z,999.69
2023-03-23T12:04:03.588Z,999.74
2023-03-23T12:05:03.605Z,999.74
2023-03-23T12:06:03.559Z,999.71
2023-03-23T12:07:03.589Z,999.69
2023-03-23T12:08:03.535Z,999.82
2023-03-23T12:09:03.532Z,999.72
2023-03-23T12:10:03.528Z,999.78
2023-03-23T12:11:03.897Z,999.83
2023-03-23T12:12:03.495Z,999.76
2023-03-23T12:13:03.472Z,999.75
2023-03-23T12:14:03.482Z,999.82
2023-03-23T12:15:03.480Z,999.78
2023-03-23T12:16:03.451Z,999.91
2023-03-23T12:17:03.451Z,999.73
2023-03-23T12:18:03.415Z,999.80
2023-03-23T12:19:03.418Z,999.80
2023-03-23T12:20:03.408Z,999.68
2023-03-23T12:21:03.457Z,999.72
2023-03-23T12:22:03.369Z,999.61
2023-03-23T12:23:03.372Z,999.64
2023-03-23T12:24:04.011Z,999.72
2023-03-23T12:25:03.362Z,999.75
2023-03-23T12:26:03.336Z,999.68
2023-03-23T12:27:03.349Z,999.65